sensor_id;sensor_type;location;lat;lon;timestamp;P1;durP1;ratioP1;P2;durP2;ratioP2
14137;SDS011;8199;51.310;9.466;2023-07-31T00:01:35;3.35;;;1.70;;
14137;SDS011;8199;51.310;9.466;2023-07-31T00:04:01;2.60;;;1.60;;
14137;SDS011;8199;51.310;9.466;2023-07-31T00:06:26;3.53;;;1.80;;
14137;SDS011;8199;51.310;9.466;2023-07-31T00:08:52;3.95;;;1.92;;
14137;SDS011;8199;51.310;9.466;2023-07-31T00:11:17;4.32;;;2.00;;
14137;SDS011;8199;51.310;9.466;2023-07-31T00:13:43;3.22;;;1.60;;
14137;SDS011;8199;51.310;9.466;2023-07-31T00:16:08;2.33;;;1.58;;
14137;SDS011;8199;51.310;9.466;2023-07-31T00:18:34;4.45;;;2.08;;
14137;SDS011;8199;51.310;9.466;2023-07-31T00:20:59;2.50;;;1.70;;
14137;SDS011;8199;51.310;9.466;2023-07-31T00:23:25;4.43;;;2.28;;
14137;SDS011;8199;51.310;9.466;2023-07-31T00:25:50;2.53;;;1.63;;
14137;SDS011;8199;51.310;9.466;2023-07-31T00:28:16;4.85;;;1.85;;
14137;SDS011;8199;51.310;9.466;2023-07-31T00:30:41;3.58;;;1.83;;
14137;SDS011;8199;51.310;9.466;2023-07-31T00:33:07;3.92;;;1.60;;
14137;SDS011;8199;51.310;9.466;2023-07-31T00:35:32;2.75;;;1.50;;
14137;SDS011;8199;51.310;9.466;2023-07-31T00:37:58;3.85;;;1.92;;
14137;SDS011;8199;51.310;9.466;2023-07-31T00:40:24;2.70;;;1.70;;
14137;SDS011;8199;51.310;9.466;2023-07-31T00:42:49;4.00;;;1.80;;
14137;SDS011;8199;51.310;9.466;2023-07-31T00:45:15;2.58;;;1.70;;
14137;SDS011;8199;51.310;9.466;2023-07-31T00:47:41;3.03;;;1.60;;
14137;SDS011;8199;51.310;9.466;2023-07-31T00:50:07;2.40;;;1.80;;
14137;SDS011;8199;51.310;9.466;2023-07-31T00:52:33;3.55;;;1.40;;
14137;SDS011;8199;51.310;9.466;2023-07-31T00:54:58;2.97;;;1.65;;
14137;SDS011;8199;51.310;9.466;2023-07-31T00:57:25;1.83;;;1.40;;
14137;SDS011;8199;51.310;9.466;2023-07-31T00:59:50;2.22;;;1.30;;
14137;SDS011;8199;51.310;9.466;2023-07-31T01:02:16;4.00;;;1.77;;
14137;SDS011;8199;51.310;9.466;2023-07-31T01:04:42;3.35;;;1.55;;
14137;SDS011;8199;51.310;9.466;2023-07-31T01:09:44;2.55;;;1.80;;
14137;SDS011;8199;51.310;9.466;2023-07-31T01:12:20;3.95;;;1.85;;
14137;SDS011;8199;51.310;9.466;2023-07-31T01:14:51;3.03;;;1.85;;
14137;SDS011;8199;51.310;9.466;2023-07-31T01:17:27;3.35;;;1.55;;
14137;SDS011;8199;51.310;9.466;2023-07-31T01:19:54;3.65;;;1.80;;
14137;SDS011;8199;51.310;9.466;2023-07-31T01:22:30;5.38;;;2.10;;
14137;SDS011;8199;51.310;9.466;2023-07-31T01:25:26;3.05;;;2.05;;
14137;SDS011;8199;51.310;9.466;2023-07-31T01:28:13;3.45;;;1.60;;
14137;SDS011;8199;51.310;9.466;2023-07-31T01:30:43;3.45;;;1.67;;
14137;SDS011;8199;51.310;9.466;2023-07-31T01:33:11;3.53;;;1.75;;
14137;SDS011;8199;51.310;9.466;2023-07-31T01:35:37;2.92;;;1.73;;
14137;SDS011;8199;51.310;9.466;2023-07-31T01:38:04;2.28;;;1.40;;
14137;SDS011;8199;51.310;9.466;2023-07-31T01:40:30;4.40;;;1.60;;
14137;SDS011;8199;51.310;9.466;2023-07-31T01:42:55;3.58;;;1.70;;
14137;SDS011;8199;51.310;9.466;2023-07-31T01:45:21;3.90;;;1.70;;
14137;SDS011;8199;51.310;9.466;2023-07-31T01:47:46;3.72;;;1.60;;
14137;SDS011;8199;51.310;9.466;2023-07-31T01:50:12;3.72;;;1.50;;
14137;SDS011;8199;51.310;9.466;2023-07-31T01:52:38;4.88;;;1.60;;
14137;SDS011;8199;51.310;9.466;2023-07-31T01:55:03;3.08;;;1.48;;
14137;SDS011;8199;51.310;9.466;2023-07-31T01:57:29;2.35;;;1.50;;
14137;SDS011;8199;51.310;9.466;2023-07-31T01:59:55;3.15;;;1.40;;
14137;SDS011;8199;51.310;9.466;2023-07-31T02:02:21;2.88;;;1.75;;
14137;SDS011;8199;51.310;9.466;2023-07-31T02:04:50;1.73;;;1.50;;
14137;SDS011;8199;51.310;9.466;2023-07-31T02:07:16;3.35;;;1.77;;
14137;SDS011;8199;51.310;9.466;2023-07-31T02:09:41;2.50;;;1.95;;
14137;SDS011;8199;51.310;9.466;2023-07-31T02:12:07;3.58;;;1.90;;
14137;SDS011;8199;51.310;9.466;2023-07-31T02:14:36;2.30;;;1.67;;
14137;SDS011;8199;51.310;9.466;2023-07-31T02:17:01;2.17;;;1.33;;
14137;SDS011;8199;51.310;9.466;2023-07-31T02:19:27;2.35;;;1.60;;
14137;SDS011;8199;51.310;9.466;2023-07-31T02:21:52;4.30;;;1.90;;
14137;SDS011;8199;51.310;9.466;2023-07-31T02:24:18;3.25;;;1.70;;
14137;SDS011;8199;51.310;9.466;2023-07-31T02:26:43;1.95;;;1.58;;
14137;SDS011;8199;51.310;9.466;2023-07-31T02:29:09;3.15;;;1.50;;
14137;SDS011;8199;51.310;9.466;2023-07-31T02:31:34;3.20;;;1.70;;
14137;SDS011;8199;51.310;9.466;2023-07-31T02:34:00;3.95;;;2.17;;
14137;SDS011;8199;51.310;9.466;2023-07-31T02:36:25;1.92;;;1.60;;
14137;SDS011;8199;51.310;9.466;2023-07-31T02:38:51;2.10;;;1.45;;
14137;SDS011;8199;51.310;9.466;2023-07-31T02:41:17;3.03;;;1.73;;
14137;SDS011;8199;51.310;9.466;2023-07-31T02:43:42;3.00;;;1.77;;
14137;SDS011;8199;51.310;9.466;2023-07-31T02:46:08;3.17;;;1.63;;
14137;SDS011;8199;51.310;9.466;2023-07-31T02:48:33;2.40;;;1.90;;
14137;SDS011;8199;51.310;9.466;2023-07-31T02:50:59;2.67;;;1.85;;
14137;SDS011;8199;51.310;9.466;2023-07-31T02:53:24;2.88;;;2.00;;
14137;SDS011;8199;51.310;9.466;2023-07-31T02:55:50;2.63;;;1.88;;
14137;SDS011;8199;51.310;9.466;2023-07-31T02:58:15;3.55;;;1.85;;
14137;SDS011;8199;51.310;9.466;2023-07-31T03:00:44;2.75;;;2.30;;
14137;SDS011;8199;51.310;9.466;2023-07-31T03:03:10;2.95;;;1.80;;
14137;SDS011;8199;51.310;9.466;2023-07-31T03:05:36;2.30;;;1.67;;
14137;SDS011;8199;51.310;9.466;2023-07-31T03:08:01;5.10;;;2.20;;
14137;SDS011;8199;51.310;9.466;2023-07-31T03:10:27;3.55;;;1.90;;
14137;SDS011;8199;51.310;9.466;2023-07-31T03:12:53;3.95;;;2.05;;
14137;SDS011;8199;51.310;9.466;2023-07-31T03:15:18;2.50;;;2.05;;
14137;SDS011;8199;51.310;9.466;2023-07-31T03:17:44;3.30;;;2.00;;
14137;SDS011;8199;51.310;9.466;2023-07-31T03:20:09;3.05;;;2.30;;
14137;SDS011;8199;51.310;9.466;2023-07-31T03:22:35;2.85;;;2.10;;
14137;SDS011;8199;51.310;9.466;2023-07-31T03:25:02;4.32;;;2.20;;
14137;SDS011;8199;51.310;9.466;2023-07-31T03:27:28;3.30;;;2.25;;
14137;SDS011;8199;51.310;9.466;2023-07-31T03:29:53;3.78;;;2.35;;
14137;SDS011;8199;51.310;9.466;2023-07-31T03:32:19;2.95;;;2.15;;
14137;SDS011;8199;51.310;9.466;2023-07-31T03:34:45;2.38;;;2.05;;
14137;SDS011;8199;51.310;9.466;2023-07-31T03:37:11;3.58;;;2.30;;
14137;SDS011;8199;51.310;9.466;2023-07-31T03:39:37;2.70;;;2.10;;
14137;SDS011;8199;51.310;9.466;2023-07-31T03:42:02;3.47;;;2.30;;
14137;SDS011;8199;51.310;9.466;2023-07-31T03:44:28;2.38;;;2.03;;
14137;SDS011;8199;51.310;9.466;2023-07-31T03:46:53;3.13;;;2.33;;
14137;SDS011;8199;51.310;9.466;2023-07-31T03:49:19;3.38;;;2.47;;
14137;SDS011;8199;51.310;9.466;2023-07-31T03:51:45;5.03;;;2.05;;
14137;SDS011;8199;51.310;9.466;2023-07-31T03:54:10;3.47;;;2.25;;
14137;SDS011;8199;51.310;9.466;2023-07-31T03:56:36;3.38;;;2.40;;
14137;SDS011;8199;51.310;9.466;2023-07-31T03:59:03;2.92;;;2.28;;
14137;SDS011;8199;51.310;9.466;2023-07-31T04:01:29;1.77;;;1.63;;
14137;SDS011;8199;51.310;9.466;2023-07-31T04:03:54;2.83;;;2.17;;
14137;SDS011;8199;51.310;9.466;2023-07-31T04:06:20;2.58;;;1.95;;
14137;SDS011;8199;51.310;9.466;2023-07-31T04:08:45;3.45;;;1.85;;
14137;SDS011;8199;51.310;9.466;2023-07-31T04:11:11;2.70;;;1.85;;
14137;SDS011;8199;51.310;9.466;2023-07-31T04:13:39;2.88;;;1.85;;
14137;SDS011;8199;51.310;9.466;2023-07-31T04:16:05;2.72;;;2.10;;
14137;SDS011;8199;51.310;9.466;2023-07-31T04:18:30;2.60;;;1.73;;
14137;SDS011;8199;51.310;9.466;2023-07-31T04:20:57;3.33;;;2.20;;
14137;SDS011;8199;51.310;9.466;2023-07-31T04:23:27;2.92;;;2.28;;
14137;SDS011;8199;51.310;9.466;2023-07-31T04:25:53;3.10;;;2.13;;
14137;SDS011;8199;51.310;9.466;2023-07-31T04:28:18;3.60;;;2.10;;
14137;SDS011;8199;51.310;9.466;2023-07-31T04:30:44;5.45;;;2.30;;
14137;SDS011;8199;51.310;9.466;2023-07-31T04:33:09;5.28;;;2.53;;
14137;SDS011;8199;51.310;9.466;2023-07-31T04:35:35;5.47;;;2.50;;
14137;SDS011;8199;51.310;9.466;2023-07-31T04:38:01;6.75;;;2.50;;
14137;SDS011;8199;51.310;9.466;2023-07-31T04:40:26;4.93;;;2.25;;
14137;SDS011;8199;51.310;9.466;2023-07-31T04:42:52;4.43;;;2.25;;
14137;SDS011;8199;51.310;9.466;2023-07-31T04:45:17;5.38;;;2.20;;
14137;SDS011;8199;51.310;9.466;2023-07-31T04:47:43;5.50;;;2.42;;
14137;SDS011;8199;51.310;9.466;2023-07-31T04:50:09;3.70;;;2.25;;
14137;SDS011;8199;51.310;9.466;2023-07-31T04:52:34;4.38;;;2.10;;
14137;SDS011;8199;51.310;9.466;2023-07-31T04:55:00;4.38;;;2.53;;
14137;SDS011;8199;51.310;9.466;2023-07-31T04:57:26;4.75;;;2.33;;
14137;SDS011;8199;51.310;9.466;2023-07-31T04:59:51;3.42;;;2.40;;
14137;SDS011;8199;51.310;9.466;2023-07-31T05:02:17;3.65;;;2.35;;
14137;SDS011;8199;51.310;9.466;2023-07-31T05:04:42;2.35;;;2.10;;
14137;SDS011;8199;51.310;9.466;2023-07-31T05:07:08;3.45;;;2.40;;
14137;SDS011;8199;51.310;9.466;2023-07-31T05:09:33;3.17;;;2.40;;
14137;SDS011;8199;51.310;9.466;2023-07-31T05:11:59;3.22;;;2.33;;
14137;SDS011;8199;51.310;9.466;2023-07-31T05:14:25;3.17;;;2.47;;
14137;SDS011;8199;51.310;9.466;2023-07-31T05:16:51;3.45;;;2.42;;
14137;SDS011;8199;51.310;9.466;2023-07-31T05:19:17;2.85;;;2.42;;
14137;SDS011;8199;51.310;9.466;2023-07-31T05:21:42;3.75;;;2.33;;
14137;SDS011;8199;51.310;9.466;2023-07-31T05:24:10;3.92;;;2.10;;
14137;SDS011;8199;51.310;9.466;2023-07-31T05:26:35;5.95;;;2.30;;
14137;SDS011;8199;51.310;9.466;2023-07-31T05:29:01;2.97;;;2.10;;
14137;SDS011;8199;51.310;9.466;2023-07-31T05:31:27;3.53;;;2.38;;
14137;SDS011;8199;51.310;9.466;2023-07-31T05:33:52;4.22;;;2.58;;
14137;SDS011;8199;51.310;9.466;2023-07-31T05:36:18;4.13;;;2.60;;
14137;SDS011;8199;51.310;9.466;2023-07-31T05:38:43;3.40;;;2.40;;
14137;SDS011;8199;51.310;9.466;2023-07-31T05:41:09;4.03;;;2.10;;
14137;SDS011;8199;51.310;9.466;2023-07-31T05:43:36;4.65;;;2.55;;
14137;SDS011;8199;51.310;9.466;2023-07-31T05:46:02;5.20;;;2.72;;
14137;SDS011;8199;51.310;9.466;2023-07-31T05:48:28;4.90;;;2.33;;
14137;SDS011;8199;51.310;9.466;2023-07-31T05:50:53;3.05;;;2.25;;
14137;SDS011;8199;51.310;9.466;2023-07-31T05:53:19;4.70;;;2.70;;
14137;SDS011;8199;51.310;9.466;2023-07-31T05:55:44;4.20;;;2.63;;
14137;SDS011;8199;51.310;9.466;2023-07-31T05:58:10;3.63;;;2.83;;
14137;SDS011;8199;51.310;9.466;2023-07-31T06:00:35;6.78;;;2.70;;
14137;SDS011;8199;51.310;9.466;2023-07-31T06:03:01;6.22;;;2.80;;
14137;SDS011;8199;51.310;9.466;2023-07-31T06:05:27;6.38;;;2.90;;
14137;SDS011;8199;51.310;9.466;2023-07-31T06:07:54;3.83;;;2.65;;
14137;SDS011;8199;51.310;9.466;2023-07-31T06:10:20;5.55;;;2.50;;
14137;SDS011;8199;51.310;9.466;2023-07-31T06:12:46;4.80;;;2.90;;
14137;SDS011;8199;51.310;9.466;2023-07-31T06:15:11;4.65;;;2.60;;
14137;SDS011;8199;51.310;9.466;2023-07-31T06:17:37;3.90;;;2.35;;
14137;SDS011;8199;51.310;9.466;2023-07-31T06:20:03;4.30;;;2.47;;
14137;SDS011;8199;51.310;9.466;2023-07-31T06:22:30;4.18;;;2.60;;
14137;SDS011;8199;51.310;9.466;2023-07-31T06:24:56;4.43;;;2.97;;
14137;SDS011;8199;51.310;9.466;2023-07-31T06:27:21;8.45;;;2.67;;
14137;SDS011;8199;51.310;9.466;2023-07-31T06:29:47;5.15;;;2.60;;
14137;SDS011;8199;51.310;9.466;2023-07-31T06:32:13;3.88;;;2.78;;
14137;SDS011;8199;51.310;9.466;2023-07-31T06:34:38;5.50;;;2.50;;
14137;SDS011;8199;51.310;9.466;2023-07-31T06:37:04;3.05;;;2.58;;
14137;SDS011;8199;51.310;9.466;2023-07-31T06:39:30;5.00;;;2.80;;
14137;SDS011;8199;51.310;9.466;2023-07-31T06:41:55;5.38;;;2.65;;
14137;SDS011;8199;51.310;9.466;2023-07-31T06:44:21;4.97;;;2.80;;
14137;SDS011;8199;51.310;9.466;2023-07-31T06:46:46;5.47;;;2.92;;
14137;SDS011;8199;51.310;9.466;2023-07-31T06:49:12;4.30;;;2.55;;
14137;SDS011;8199;51.310;9.466;2023-07-31T06:51:40;2.60;;;2.33;;
14137;SDS011;8199;51.310;9.466;2023-07-31T06:54:05;4.22;;;2.75;;
14137;SDS011;8199;51.310;9.466;2023-07-31T06:56:31;2.95;;;2.20;;
14137;SDS011;8199;51.310;9.466;2023-07-31T06:58:57;3.55;;;2.58;;
14137;SDS011;8199;51.310;9.466;2023-07-31T07:01:22;4.10;;;2.60;;
14137;SDS011;8199;51.310;9.466;2023-07-31T07:03:48;5.55;;;2.83;;
14137;SDS011;8199;51.310;9.466;2023-07-31T07:06:15;4.20;;;2.72;;
14137;SDS011;8199;51.310;9.466;2023-07-31T07:08:42;3.67;;;2.20;;
14137;SDS011;8199;51.310;9.466;2023-07-31T07:11:07;6.28;;;2.58;;
14137;SDS011;8199;51.310;9.466;2023-07-31T07:13:33;5.78;;;2.97;;
14137;SDS011;8199;51.310;9.466;2023-07-31T07:15:59;5.28;;;3.38;;
14137;SDS011;8199;51.310;9.466;2023-07-31T07:18:24;7.97;;;3.22;;
14137;SDS011;8199;51.310;9.466;2023-07-31T07:20:50;6.80;;;2.75;;
14137;SDS011;8199;51.310;9.466;2023-07-31T07:23:17;4.75;;;2.90;;
14137;SDS011;8199;51.310;9.466;2023-07-31T07:25:43;6.85;;;2.97;;
14137;SDS011;8199;51.310;9.466;2023-07-31T07:28:10;4.15;;;2.75;;
14137;SDS011;8199;51.310;9.466;2023-07-31T07:30:35;5.18;;;3.10;;
14137;SDS011;8199;51.310;9.466;2023-07-31T07:33:01;4.70;;;2.75;;
14137;SDS011;8199;51.310;9.466;2023-07-31T07:35:27;5.13;;;2.70;;
14137;SDS011;8199;51.310;9.466;2023-07-31T07:37:52;3.28;;;2.65;;
14137;SDS011;8199;51.310;9.466;2023-07-31T07:40:18;4.35;;;3.03;;
14137;SDS011;8199;51.310;9.466;2023-07-31T07:42:44;5.43;;;2.95;;
14137;SDS011;8199;51.310;9.466;2023-07-31T07:45:10;4.45;;;2.92;;
14137;SDS011;8199;51.310;9.466;2023-07-31T07:47:35;4.45;;;2.53;;
14137;SDS011;8199;51.310;9.466;2023-07-31T07:50:01;3.88;;;2.35;;
14137;SDS011;8199;51.310;9.466;2023-07-31T07:52:26;3.92;;;2.58;;
14137;SDS011;8199;51.310;9.466;2023-07-31T07:54:53;3.83;;;2.50;;
14137;SDS011;8199;51.310;9.466;2023-07-31T07:57:18;3.35;;;2.42;;
14137;SDS011;8199;51.310;9.466;2023-07-31T07:59:44;3.78;;;2.70;;
14137;SDS011;8199;51.310;9.466;2023-07-31T08:02:09;4.40;;;2.75;;
14137;SDS011;8199;51.310;9.466;2023-07-31T08:04:35;4.93;;;2.60;;
14137;SDS011;8199;51.310;9.466;2023-07-31T08:07:00;5.55;;;2.90;;
14137;SDS011;8199;51.310;9.466;2023-07-31T08:09:26;3.58;;;2.53;;
14137;SDS011;8199;51.310;9.466;2023-07-31T08:11:52;3.80;;;2.80;;
14137;SDS011;8199;51.310;9.466;2023-07-31T08:14:17;4.97;;;2.80;;
14137;SDS011;8199;51.310;9.466;2023-07-31T08:16:43;5.30;;;3.05;;
14137;SDS011;8199;51.310;9.466;2023-07-31T08:19:08;2.80;;;2.25;;
14137;SDS011;8199;51.310;9.466;2023-07-31T08:21:34;4.78;;;2.40;;
14137;SDS011;8199;51.310;9.466;2023-07-31T08:24:00;4.88;;;2.90;;
14137;SDS011;8199;51.310;9.466;2023-07-31T08:26:25;5.68;;;2.67;;
14137;SDS011;8199;51.310;9.466;2023-07-31T08:28:51;3.65;;;2.90;;
14137;SDS011;8199;51.310;9.466;2023-07-31T08:31:16;4.45;;;2.42;;
14137;SDS011;8199;51.310;9.466;2023-07-31T08:33:43;3.58;;;2.45;;
14137;SDS011;8199;51.310;9.466;2023-07-31T08:36:08;4.20;;;2.97;;
14137;SDS011;8199;51.310;9.466;2023-07-31T08:38:34;4.13;;;2.83;;
14137;SDS011;8199;51.310;9.466;2023-07-31T08:41:00;5.35;;;3.22;;
14137;SDS011;8199;51.310;9.466;2023-07-31T08:43:26;5.38;;;3.08;;
14137;SDS011;8199;51.310;9.466;2023-07-31T08:45:52;6.40;;;3.17;;
14137;SDS011;8199;51.310;9.466;2023-07-31T08:48:19;5.20;;;3.03;;
14137;SDS011;8199;51.310;9.466;2023-07-31T08:50:47;3.50;;;3.00;;
14137;SDS011;8199;51.310;9.466;2023-07-31T08:53:12;5.35;;;3.05;;
14137;SDS011;8199;51.310;9.466;2023-07-31T08:55:38;3.58;;;2.80;;
14137;SDS011;8199;51.310;9.466;2023-07-31T08:58:05;4.43;;;3.22;;
14137;SDS011;8199;51.310;9.466;2023-07-31T09:00:31;5.68;;;3.97;;
14137;SDS011;8199;51.310;9.466;2023-07-31T09:03:07;5.97;;;3.40;;
14137;SDS011;8199;51.310;9.466;2023-07-31T09:05:35;4.65;;;3.33;;
14137;SDS011;8199;51.310;9.466;2023-07-31T09:08:05;4.47;;;3.28;;
14137;SDS011;8199;51.310;9.466;2023-07-31T09:10:32;5.25;;;3.58;;
14137;SDS011;8199;51.310;9.466;2023-07-31T09:12:58;4.70;;;3.72;;
14137;SDS011;8199;51.310;9.466;2023-07-31T09:15:24;6.03;;;3.90;;
14137;SDS011;8199;51.310;9.466;2023-07-31T09:17:58;6.18;;;3.58;;
14137;SDS011;8199;51.310;9.466;2023-07-31T09:20:28;5.43;;;3.60;;
14137;SDS011;8199;51.310;9.466;2023-07-31T09:22:54;5.05;;;3.38;;
14137;SDS011;8199;51.310;9.466;2023-07-31T09:27:50;4.95;;;3.40;;
14137;SDS011;8199;51.310;9.466;2023-07-31T09:30:18;3.78;;;3.25;;
14137;SDS011;8199;51.310;9.466;2023-07-31T09:32:44;4.47;;;3.35;;
14137;SDS011;8199;51.310;9.466;2023-07-31T09:37:57;6.82;;;3.72;;
14137;SDS011;8199;51.310;9.466;2023-07-31T09:40:29;4.07;;;3.35;;
14137;SDS011;8199;51.310;9.466;2023-07-31T09:43:01;5.65;;;3.42;;
14137;SDS011;8199;51.310;9.466;2023-07-31T09:45:36;5.97;;;3.90;;
14137;SDS011;8199;51.310;9.466;2023-07-31T09:48:02;5.95;;;3.60;;
14137;SDS011;8199;51.310;9.466;2023-07-31T09:50:31;5.82;;;3.75;;
14137;SDS011;8199;51.310;9.466;2023-07-31T09:52:57;6.97;;;3.90;;
14137;SDS011;8199;51.310;9.466;2023-07-31T09:55:23;5.60;;;3.83;;
14137;SDS011;8199;51.310;9.466;2023-07-31T09:57:49;7.65;;;3.65;;
14137;SDS011;8199;51.310;9.466;2023-07-31T10:00:18;6.63;;;4.30;;
14137;SDS011;8199;51.310;9.466;2023-07-31T10:02:45;6.10;;;3.53;;
14137;SDS011;8199;51.310;9.466;2023-07-31T10:05:13;5.65;;;4.00;;
14137;SDS011;8199;51.310;9.466;2023-07-31T10:07:42;6.88;;;4.28;;
14137;SDS011;8199;51.310;9.466;2023-07-31T10:10:18;5.18;;;3.60;;
14137;SDS011;8199;51.310;9.466;2023-07-31T10:12:46;6.38;;;4.05;;
14137;SDS011;8199;51.310;9.466;2023-07-31T10:15:14;6.75;;;3.55;;
14137;SDS011;8199;51.310;9.466;2023-07-31T10:17:40;5.32;;;3.70;;
14137;SDS011;8199;51.310;9.466;2023-07-31T10:20:06;5.18;;;3.80;;
14137;SDS011;8199;51.310;9.466;2023-07-31T10:22:33;5.20;;;4.20;;
14137;SDS011;8199;51.310;9.466;2023-07-31T10:24:59;4.65;;;3.78;;
14137;SDS011;8199;51.310;9.466;2023-07-31T10:27:25;6.03;;;4.25;;
14137;SDS011;8199;51.310;9.466;2023-07-31T10:29:52;6.80;;;4.10;;
14137;SDS011;8199;51.310;9.466;2023-07-31T10:32:19;6.20;;;4.13;;
14137;SDS011;8199;51.310;9.466;2023-07-31T10:34:46;5.25;;;3.92;;
14137;SDS011;8199;51.310;9.466;2023-07-31T10:37:30;6.22;;;4.03;;
14137;SDS011;8199;51.310;9.466;2023-07-31T10:40:18;7.07;;;3.70;;
14137;SDS011;8199;51.310;9.466;2023-07-31T10:42:51;5.93;;;4.18;;
14137;SDS011;8199;51.310;9.466;2023-07-31T10:45:25;7.93;;;4.22;;
14137;SDS011;8199;51.310;9.466;2023-07-31T10:48:01;7.03;;;4.32;;
14137;SDS011;8199;51.310;9.466;2023-07-31T10:50:32;6.97;;;4.38;;
14137;SDS011;8199;51.310;9.466;2023-07-31T10:53:02;5.78;;;4.20;;
14137;SDS011;8199;51.310;9.466;2023-07-31T10:55:30;6.10;;;3.95;;
14137;SDS011;8199;51.310;9.466;2023-07-31T10:58:13;8.07;;;4.65;;
14137;SDS011;8199;51.310;9.466;2023-07-31T11:00:43;6.97;;;4.07;;
14137;SDS011;8199;51.310;9.466;2023-07-31T11:03:13;6.55;;;4.30;;
14137;SDS011;8199;51.310;9.466;2023-07-31T11:08:10;9.75;;;4.53;;
14137;SDS011;8199;51.310;9.466;2023-07-31T11:10:37;8.10;;;4.60;;
14137;SDS011;8199;51.310;9.466;2023-07-31T11:13:04;8.73;;;5.10;;
14137;SDS011;8199;51.310;9.466;2023-07-31T11:15:30;6.60;;;4.90;;
14137;SDS011;8199;51.310;9.466;2023-07-31T11:17:56;6.30;;;4.43;;
14137;SDS011;8199;51.310;9.466;2023-07-31T11:20:23;7.65;;;4.38;;
14137;SDS011;8199;51.310;9.466;2023-07-31T11:22:49;5.45;;;3.92;;
14137;SDS011;8199;51.310;9.466;2023-07-31T11:25:15;9.00;;;4.35;;
14137;SDS011;8199;51.310;9.466;2023-07-31T11:27:41;9.02;;;4.55;;
14137;SDS011;8199;51.310;9.466;2023-07-31T11:30:08;5.25;;;3.70;;
14137;SDS011;8199;51.310;9.466;2023-07-31T11:32:37;4.07;;;3.00;;
14137;SDS011;8199;51.310;9.466;2023-07-31T11:35:03;4.95;;;3.20;;
14137;SDS011;8199;51.310;9.466;2023-07-31T11:37:43;5.05;;;3.40;;
14137;SDS011;8199;51.310;9.466;2023-07-31T11:40:09;5.18;;;3.60;;
14137;SDS011;8199;51.310;9.466;2023-07-31T11:42:35;4.43;;;3.13;;
14137;SDS011;8199;51.310;9.466;2023-07-31T11:45:02;5.75;;;3.25;;
14137;SDS011;8199;51.310;9.466;2023-07-31T11:47:28;5.28;;;2.85;;
14137;SDS011;8199;51.310;9.466;2023-07-31T11:49:57;5.05;;;2.85;;
14137;SDS011;8199;51.310;9.466;2023-07-31T11:52:23;4.97;;;3.30;;
14137;SDS011;8199;51.310;9.466;2023-07-31T11:54:49;4.15;;;3.00;;
14137;SDS011;8199;51.310;9.466;2023-07-31T11:57:15;4.65;;;3.00;;
14137;SDS011;8199;51.310;9.466;2023-07-31T11:59:41;4.55;;;3.22;;
14137;SDS011;8199;51.310;9.466;2023-07-31T12:02:07;4.43;;;2.88;;
14137;SDS011;8199;51.310;9.466;2023-07-31T12:04:33;4.90;;;3.00;;
14137;SDS011;8199;51.310;9.466;2023-07-31T12:07:02;3.72;;;3.30;;
14137;SDS011;8199;51.310;9.466;2023-07-31T12:09:28;4.70;;;2.72;;
14137;SDS011;8199;51.310;9.466;2023-07-31T12:11:53;4.25;;;3.20;;
14137;SDS011;8199;51.310;9.466;2023-07-31T12:14:28;4.75;;;3.13;;
14137;SDS011;8199;51.310;9.466;2023-07-31T12:16:54;4.10;;;3.15;;
14137;SDS011;8199;51.310;9.466;2023-07-31T12:19:21;3.92;;;2.78;;
14137;SDS011;8199;51.310;9.466;2023-07-31T12:21:47;4.43;;;3.10;;
14137;SDS011;8199;51.310;9.466;2023-07-31T12:24:13;4.57;;;3.60;;
14137;SDS011;8199;51.310;9.466;2023-07-31T12:26:38;5.20;;;3.45;;
14137;SDS011;8199;51.310;9.466;2023-07-31T12:29:05;3.60;;;2.90;;
14137;SDS011;8199;51.310;9.466;2023-07-31T12:31:33;5.95;;;3.50;;
14137;SDS011;8199;51.310;9.466;2023-07-31T12:33:59;3.50;;;3.20;;
14137;SDS011;8199;51.310;9.466;2023-07-31T12:36:24;5.50;;;3.25;;
14137;SDS011;8199;51.310;9.466;2023-07-31T12:38:50;4.03;;;3.10;;
14137;SDS011;8199;51.310;9.466;2023-07-31T12:41:17;7.43;;;3.60;;
14137;SDS011;8199;51.310;9.466;2023-07-31T12:43:44;5.40;;;3.35;;
14137;SDS011;8199;51.310;9.466;2023-07-31T12:46:10;4.45;;;3.33;;
14137;SDS011;8199;51.310;9.466;2023-07-31T12:48:39;6.65;;;3.80;;
14137;SDS011;8199;51.310;9.466;2023-07-31T12:51:05;5.72;;;3.30;;
14137;SDS011;8199;51.310;9.466;2023-07-31T12:53:34;5.93;;;3.45;;
14137;SDS011;8199;51.310;9.466;2023-07-31T12:55:59;4.00;;;3.20;;
14137;SDS011;8199;51.310;9.466;2023-07-31T12:58:26;4.97;;;3.00;;
14137;SDS011;8199;51.310;9.466;2023-07-31T13:00:51;5.43;;;3.45;;
14137;SDS011;8199;51.310;9.466;2023-07-31T13:03:17;4.00;;;3.05;;
14137;SDS011;8199;51.310;9.466;2023-07-31T13:05:42;4.07;;;3.10;;
14137;SDS011;8199;51.310;9.466;2023-07-31T13:08:08;3.92;;;3.05;;
14137;SDS011;8199;51.310;9.466;2023-07-31T13:10:34;4.95;;;3.63;;
14137;SDS011;8199;51.310;9.466;2023-07-31T13:12:59;4.57;;;3.00;;
14137;SDS011;8199;51.310;9.466;2023-07-31T13:15:25;7.25;;;3.80;;
14137;SDS011;8199;51.310;9.466;2023-07-31T13:17:50;4.68;;;3.40;;
14137;SDS011;8199;51.310;9.466;2023-07-31T13:20:16;3.83;;;2.95;;
14137;SDS011;8199;51.310;9.466;2023-07-31T13:22:41;5.03;;;3.10;;
14137;SDS011;8199;51.310;9.466;2023-07-31T13:25:07;5.35;;;3.40;;
14137;SDS011;8199;51.310;9.466;2023-07-31T13:27:33;4.72;;;3.22;;
14137;SDS011;8199;51.310;9.466;2023-07-31T13:29:59;5.13;;;3.15;;
14137;SDS011;8199;51.310;9.466;2023-07-31T13:32:25;5.18;;;3.35;;
14137;SDS011;8199;51.310;9.466;2023-07-31T13:34:51;5.85;;;3.42;;
14137;SDS011;8199;51.310;9.466;2023-07-31T13:37:16;5.90;;;3.67;;
14137;SDS011;8199;51.310;9.466;2023-07-31T13:39:42;6.93;;;3.78;;
14137;SDS011;8199;51.310;9.466;2023-07-31T13:42:08;5.80;;;3.50;;
14137;SDS011;8199;51.310;9.466;2023-07-31T13:44:40;6.63;;;3.67;;
14137;SDS011;8199;51.310;9.466;2023-07-31T13:47:07;5.13;;;2.95;;
14137;SDS011;8199;51.310;9.466;2023-07-31T13:49:34;4.57;;;3.30;;
14137;SDS011;8199;51.310;9.466;2023-07-31T13:52:00;3.95;;;3.20;;
14137;SDS011;8199;51.310;9.466;2023-07-31T13:54:26;6.30;;;3.20;;
14137;SDS011;8199;51.310;9.466;2023-07-31T13:56:52;6.38;;;3.45;;
14137;SDS011;8199;51.310;9.466;2023-07-31T13:59:18;5.15;;;3.85;;
14137;SDS011;8199;51.310;9.466;2023-07-31T14:01:44;6.43;;;4.00;;
14137;SDS011;8199;51.310;9.466;2023-07-31T14:04:10;5.28;;;3.90;;
14137;SDS011;8199;51.310;9.466;2023-07-31T14:06:36;4.50;;;3.60;;
14137;SDS011;8199;51.310;9.466;2023-07-31T14:09:02;6.15;;;3.83;;
14137;SDS011;8199;51.310;9.466;2023-07-31T14:11:28;7.07;;;3.85;;
14137;SDS011;8199;51.310;9.466;2023-07-31T14:13:54;6.53;;;4.22;;
14137;SDS011;8199;51.310;9.466;2023-07-31T14:16:21;6.88;;;4.18;;
14137;SDS011;8199;51.310;9.466;2023-07-31T14:18:47;5.63;;;3.80;;
14137;SDS011;8199;51.310;9.466;2023-07-31T14:21:12;6.03;;;3.67;;
14137;SDS011;8199;51.310;9.466;2023-07-31T14:23:38;6.00;;;3.92;;
14137;SDS011;8199;51.310;9.466;2023-07-31T14:26:04;4.82;;;3.40;;
14137;SDS011;8199;51.310;9.466;2023-07-31T14:28:29;4.03;;;3.17;;
14137;SDS011;8199;51.310;9.466;2023-07-31T14:30:55;4.70;;;3.22;;
14137;SDS011;8199;51.310;9.466;2023-07-31T14:33:21;3.75;;;2.67;;
14137;SDS011;8199;51.310;9.466;2023-07-31T14:35:46;4.85;;;2.95;;
14137;SDS011;8199;51.310;9.466;2023-07-31T14:38:12;3.97;;;2.85;;
14137;SDS011;8199;51.310;9.466;2023-07-31T14:40:37;4.07;;;2.78;;
14137;SDS011;8199;51.310;9.466;2023-07-31T14:43:03;4.85;;;2.80;;
14137;SDS011;8199;51.310;9.466;2023-07-31T14:45:29;3.35;;;2.58;;
14137;SDS011;8199;51.310;9.466;2023-07-31T14:47:55;3.97;;;2.50;;
14137;SDS011;8199;51.310;9.466;2023-07-31T14:50:20;3.90;;;2.70;;
14137;SDS011;8199;51.310;9.466;2023-07-31T14:52:48;4.03;;;2.67;;
14137;SDS011;8199;51.310;9.466;2023-07-31T14:55:14;3.78;;;2.75;;
14137;SDS011;8199;51.310;9.466;2023-07-31T14:57:39;2.58;;;2.33;;
14137;SDS011;8199;51.310;9.466;2023-07-31T15:00:05;4.95;;;2.60;;
14137;SDS011;8199;51.310;9.466;2023-07-31T15:02:33;3.60;;;2.60;;
14137;SDS011;8199;51.310;9.466;2023-07-31T15:04:59;4.72;;;2.58;;
14137;SDS011;8199;51.310;9.466;2023-07-31T15:07:25;5.05;;;3.50;;